Time;durP1;ratioP1;P1;durP2;ratioP2;P2;SDS_P1;SDS_P2;PMS_P1;PMS_P2;Temp;Humidity;BMP_temperature;BMP_pressure;BME280_temperature;BME280_humidity;BME280_pressure;Samples;Min_cycle;Max_cycle;Signal;HPM_P1;HPM_P2
2022/12/09 00:00:11;;;;;;;7.50;5.20;;;1.80;99.90;;;;;;5077264;28;20454;-49
2022/12/09 00:02:38;;;;;;;10.07;5.53;;;1.90;99.90;;;;;;5076678;28;20430;-52
2022/12/09 00:05:06;;;;;;;11.93;6.83;;;1.80;99.90;;;;;;5076553;28;20452;-52
2022/12/09 00:07:35;;;;;;;13.13;7.70;;;1.80;99.90;;;;;;5076773;28;20470;-60
2022/12/09 00:10:04;;;;;;;10.27;7.00;;;1.80;99.90;;;;;;5076476;28;20542;-54
2022/12/09 00:12:31;;;;;;;12.27;7.23;;;1.80;99.90;;;;;;5076612;28;20427;-48
2022/12/09 00:14:57;;;;;;;10.30;5.80;;;1.80;99.90;;;;;;5076284;28;20443;-54
2022/12/09 00:17:24;;;;;;;10.93;7.10;;;1.80;99.90;;;;;;5076265;28;20430;-52
2022/12/09 00:19:51;;;;;;;10.70;7.17;;;1.80;99.90;;;;;;5075952;28;20470;-50
2022/12/09 00:22:18;;;;;;;11.97;6.87;;;1.80;99.90;;;;;;5076216;28;20474;-49
2022/12/09 00:24:45;;;;;;;15.93;8.47;;;1.80;99.90;;;;;;5076315;28;20475;-53
2022/12/09 00:27:16;;;;;;;11.73;8.10;;;1.70;99.90;;;;;;5076414;28;20439;-53
2022/12/09 00:29:43;;;;;;;15.13;8.07;;;1.70;99.90;;;;;;5076111;28;20441;-53
2022/12/09 00:32:13;;;;;;;26.30;8.03;;;1.70;99.90;;;;;;5076279;28;20455;-51
2022/12/09 00:34:41;;;;;;;12.77;6.30;;;1.70;99.90;;;;;;5076222;28;20470;-51
2022/12/09 00:37:09;;;;;;;16.40;7.90;;;1.70;99.90;;;;;;5075921;28;20443;-48
2022/12/09 00:39:40;;;;;;;11.87;7.13;;;1.80;99.90;;;;;;5076554;28;20473;-50
2022/12/09 00:42:10;;;;;;;13.00;6.47;;;1.70;99.90;;;;;;5076540;28;20432;-53
2022/12/09 00:44:45;;;;;;;12.53;6.60;;;1.70;99.90;;;;;;5075730;28;20790;-55
2022/12/09 00:47:12;;;;;;;13.47;8.47;;;1.80;99.90;;;;;;5076118;28;20454;-54
2022/12/09 00:49:39;;;;;;;15.97;8.30;;;1.80;99.90;;;;;;5076418;28;20443;-60
2022/12/09 00:52:06;;;;;;;8.90;5.47;;;1.80;99.90;;;;;;5076114;28;20497;-58
2022/12/09 00:54:33;;;;;;;10.60;7.10;;;1.70;99.90;;;;;;5076636;28;20503;-61
2022/12/09 00:57:00;;;;;;;12.33;7.10;;;1.70;99.90;;;;;;5076488;28;20446;-62
2022/12/09 00:59:32;;;;;;;11.93;5.93;;;1.70;99.90;;;;;;5076224;28;20943;-56
2022/12/09 01:02:02;;;;;;;11.23;4.93;;;1.70;99.90;;;;;;5076754;28;20415;-63
2022/12/09 01:04:34;;;;;;;11.60;6.77;;;1.70;99.90;;;;;;5075928;28;20482;-57
2022/12/09 01:07:01;;;;;;;11.50;8.23;;;1.70;99.90;;;;;;5076259;28;20602;-55
2022/12/09 01:09:28;;;;;;;14.83;8.07;;;1.70;99.90;;;;;;5078826;28;20779;-52
2022/12/09 01:11:55;;;;;;;9.80;7.47;;;1.60;99.90;;;;;;5079633;28;20458;-49
2022/12/09 01:14:24;;;;;;;11.23;6.63;;;1.60;99.90;;;;;;5079971;28;20432;-53
2022/12/09 01:16:51;;;;;;;9.40;6.57;;;1.60;99.90;;;;;;5080479;28;20557;-56
2022/12/09 01:19:19;;;;;;;12.77;7.80;;;1.60;99.90;;;;;;5080293;28;20450;-53
2022/12/09 01:21:48;;;;;;;20.70;9.10;;;1.60;99.90;;;;;;5080282;28;20440;-54
2022/12/09 01:24:15;;;;;;;14.17;8.60;;;1.60;99.90;;;;;;5080191;28;20491;-51
2022/12/09 01:26:42;;;;;;;12.53;7.27;;;1.60;99.90;;;;;;5080222;28;20428;-51
2022/12/09 01:29:09;;;;;;;13.20;8.17;;;1.60;99.90;;;;;;5079705;28;20454;-50
2022/12/09 01:31:36;;;;;;;14.23;8.27;;;1.50;99.90;;;;;;5080068;28;20450;-52
2022/12/09 01:34:03;;;;;;;13.50;7.77;;;1.50;99.90;;;;;;5080015;28;20791;-59
2022/12/09 01:36:31;;;;;;;11.07;6.40;;;1.50;99.90;;;;;;5079685;28;20474;-57
2022/12/09 01:39:01;;;;;;;11.90;7.10;;;1.40;99.90;;;;;;5079642;28;20447;-51
2022/12/09 01:41:31;;;;;;;13.30;8.43;;;1.40;99.90;;;;;;5079705;28;20467;-50
2022/12/09 01:44:15;;;;;;;16.70;8.40;;;1.40;99.90;;;;;;5079580;28;20497;-50
2022/12/09 01:46:42;;;;;;;8.07;4.90;;;1.30;99.90;;;;;;5079144;28;20419;-51
2022/12/09 01:49:14;;;;;;;11.90;8.30;;;1.30;99.90;;;;;;5079147;28;20443;-52
2022/12/09 01:51:45;;;;;;;13.73;7.83;;;1.30;99.90;;;;;;5079154;28;20440;-54
2022/12/09 01:54:12;;;;;;;17.20;8.30;;;1.30;99.90;;;;;;5079363;28;20475;-52
2022/12/09 01:56:40;;;;;;;13.70;9.40;;;1.40;99.90;;;;;;5073278;28;20503;-60
2022/12/09 01:59:10;;;;;;;14.03;7.30;;;1.40;99.90;;;;;;5079525;28;20475;-50
2022/12/09 02:01:38;;;;;;;13.77;7.20;;;1.40;99.90;;;;;;5079375;28;20439;-51
2022/12/09 02:04:05;;;;;;;11.70;7.47;;;1.40;99.90;;;;;;5079259;28;20462;-51
2022/12/09 02:06:35;;;;;;;13.40;8.43;;;1.40;99.90;;;;;;5079046;28;20463;-53
2022/12/09 02:09:03;;;;;;;14.20;6.73;;;1.40;99.90;;;;;;5079056;28;20451;-52
2022/12/09 02:11:43;;;;;;;17.43;8.33;;;1.40;99.90;;;;;;5079469;28;20447;-51
2022/12/09 02:14:16;;;;;;;14.93;8.00;;;1.40;99.90;;;;;;5079568;28;20408;-56
2022/12/09 02:16:55;;;;;;;16.00;6.43;;;1.50;99.90;;;;;;5079438;28;20420;-50
2022/12/09 02:19:36;;;;;;;15.20;8.70;;;1.60;99.90;;;;;;5078571;28;20473;-52
2022/12/09 02:22:03;;;;;;;12.57;7.80;;;1.60;99.90;;;;;;5078832;28;20419;-52
2022/12/09 02:24:40;;;;;;;13.70;6.10;;;1.60;99.90;;;;;;5079261;28;20479;-55
2022/12/09 02:27:16;;;;;;;11.77;7.30;;;1.50;99.90;;;;;;5079404;28;20428;-55
2022/12/09 02:30:08;;;;;;;13.00;7.13;;;1.50;99.90;;;;;;5071044;28;20428;-52
2022/12/09 02:33:01;;;;;;;10.20;7.07;;;1.50;99.90;;;;;;5078478;28;20428;-46
2022/12/09 02:35:41;;;;;;;14.33;7.27;;;1.50;99.90;;;;;;5078411;28;20428;-51
2022/12/09 02:38:12;;;;;;;13.27;6.97;;;1.50;99.90;;;;;;5078706;28;20507;-55
2022/12/09 02:40:46;;;;;;;14.37;5.33;;;1.50;99.90;;;;;;5078799;28;20438;-48
2022/12/09 02:43:16;;;;;;;10.73;5.07;;;1.60;99.90;;;;;;5078019;28;20454;-49
2022/12/09 02:45:44;;;;;;;15.50;7.13;;;1.60;99.90;;;;;;5078028;28;20478;-48
2022/12/09 02:48:14;;;;;;;12.53;7.63;;;1.60;99.90;;;;;;5078172;28;20477;-52
2022/12/09 02:50:44;;;;;;;12.37;7.50;;;1.60;99.90;;;;;;5078597;28;20451;-53
2022/12/09 02:53:14;;;;;;;12.23;8.73;;;1.70;99.90;;;;;;5078360;28;20474;-50
2022/12/09 02:55:43;;;;;;;17.63;5.87;;;1.70;99.90;;;;;;5078575;28;20467;-52
2022/12/09 02:58:11;;;;;;;11.20;7.67;;;1.80;99.90;;;;;;5078490;28;20424;-50
2022/12/09 03:00:39;;;;;;;14.07;8.63;;;1.90;99.90;;;;;;5078017;28;20478;-52
2022/12/09 03:03:09;;;;;;;10.50;5.30;;;1.90;99.90;;;;;;5078133;28;20466;-54
2022/12/09 03:05:48;;;;;;;13.67;6.10;;;1.90;99.90;;;;;;5078193;28;20467;-56
2022/12/09 03:08:23;;;;;;;15.23;7.20;;;2.00;99.90;;;;;;5077879;28;20481;-59
2022/12/09 03:10:57;;;;;;;10.97;6.80;;;2.00;99.90;;;;;;5077927;28;20423;-51
2022/12/09 03:13:34;;;;;;;22.83;9.50;;;2.00;99.90;;;;;;5077521;28;20407;-52
2022/12/09 03:16:08;;;;;;;10.60;5.90;;;2.00;99.90;;;;;;5076880;28;20428;-51
2022/12/09 03:18:40;;;;;;;11.93;6.13;;;2.10;99.90;;;;;;5077007;28;20451;-50
2022/12/09 03:21:11;;;;;;;15.40;7.20;;;2.10;99.90;;;;;;5076808;28;20467;-49
2022/12/09 03:23:38;;;;;;;12.10;5.80;;;2.20;99.90;;;;;;5076770;28;20436;-58
2022/12/09 03:26:06;;;;;;;12.47;5.70;;;2.30;99.90;;;;;;5077047;28;20578;-59
2022/12/09 03:28:37;;;;;;;15.13;5.27;;;2.30;99.90;;;;;;5077484;28;20466;-58
2022/12/09 03:31:07;;;;;;;11.27;4.63;;;2.30;99.90;;;;;;5077341;28;20427;-59
2022/12/09 03:33:33;;;;;;;11.67;5.93;;;2.30;99.90;;;;;;5070492;28;20498;-54
2022/12/09 03:36:04;;;;;;;12.47;5.90;;;2.40;99.90;;;;;;5071547;28;20427;-55
2022/12/09 03:38:38;;;;;;;16.10;6.57;;;2.40;99.90;;;;;;5077178;28;20494;-59
2022/12/09 03:41:10;;;;;;;9.90;5.83;;;2.40;99.90;;;;;;5077323;28;20423;-53
2022/12/09 03:43:42;;;;;;;12.43;5.57;;;2.40;99.90;;;;;;5076178;28;20463;-56
2022/12/09 03:46:09;;;;;;;14.93;7.07;;;2.40;99.90;;;;;;5070585;28;20447;-54
2022/12/09 03:48:36;;;;;;;8.67;4.57;;;2.40;99.90;;;;;;5076594;28;20459;-54
2022/12/09 03:51:08;;;;;;;12.33;7.20;;;2.30;99.90;;;;;;5077235;28;20456;-58
2022/12/09 03:53:42;;;;;;;13.90;6.17;;;2.30;99.90;;;;;;5076852;28;20427;-55
2022/12/09 03:56:15;;;;;;;13.73;8.00;;;2.20;99.90;;;;;;5076422;28;20438;-56
2022/12/09 03:58:47;;;;;;;11.67;5.70;;;2.10;99.90;;;;;;5076048;28;20432;-55
2022/12/09 04:01:15;;;;;;;9.67;6.00;;;1.90;99.90;;;;;;5070536;28;20451;-58
2022/12/09 04:03:44;;;;;;;11.93;5.27;;;1.90;99.90;;;;;;5076237;28;20496;-54
2022/12/09 04:06:11;;;;;;;12.83;6.97;;;1.80;99.90;;;;;;5076148;28;20481;-53
2022/12/09 04:08:39;;;;;;;14.73;7.83;;;1.70;99.90;;;;;;5076349;28;20447;-56
2022/12/09 04:11:06;;;;;;;13.23;6.40;;;1.70;99.90;;;;;;5075556;28;20439;-58
2022/12/09 04:13:33;;;;;;;12.43;5.30;;;1.70;99.90;;;;;;5076330;28;20469;-61
2022/12/09 04:16:00;;;;;;;11.63;9.20;;;1.70;99.90;;;;;;5076751;28;20467;-59
2022/12/09 04:18:27;;;;;;;12.10;7.40;;;1.70;99.90;;;;;;5077110;28;20455;-59
2022/12/09 04:20:54;;;;;;;12.90;6.40;;;1.70;99.90;;;;;;5075820;28;20908;-56
2022/12/09 04:23:21;;;;;;;9.27;5.93;;;1.70;99.90;;;;;;5076986;28;20458;-55
2022/12/09 04:25:50;;;;;;;15.43;8.30;;;1.70;99.90;;;;;;5075839;28;20518;-57
2022/12/09 04:28:16;;;;;;;7.57;5.73;;;1.70;99.90;;;;;;5075667;28;20459;-60
2022/12/09 04:30:45;;;;;;;14.80;6.43;;;1.70;99.90;;;;;;5069329;28;20482;-56
2022/12/09 04:33:12;;;;;;;10.00;5.77;;;1.70;99.90;;;;;;5075257;28;20451;-57
2022/12/09 04:35:39;;;;;;;9.70;5.70;;;1.80;99.90;;;;;;5075421;28;20497;-56
2022/12/09 04:38:06;;;;;;;17.10;6.80;;;1.80;99.90;;;;;;5075585;28;20443;-55
2022/12/09 04:40:33;;;;;;;12.20;7.30;;;1.90;99.90;;;;;;5075393;28;20470;-55
2022/12/09 04:43:01;;;;;;;19.50;8.53;;;1.90;99.90;;;;;;5075860;28;20443;-59
2022/12/09 04:45:30;;;;;;;8.90;5.93;;;1.80;99.90;;;;;;5079550;28;20479;-49
2022/12/09 04:48:00;;;;;;;11.93;5.03;;;1.80;99.90;;;;;;5078810;28;20454;-57
2022/12/09 04:50:27;;;;;;;12.10;6.67;;;1.80;99.90;;;;;;5080478;28;20431;-53
2022/12/09 04:52:54;;;;;;;8.23;4.87;;;1.80;99.90;;;;;;5079315;28;20477;-55
2022/12/09 04:55:20;;;;;;;6.03;4.67;;;1.80;99.90;;;;;;5079512;28;20459;-54
2022/12/09 04:57:47;;;;;;;10.83;6.07;;;1.80;99.90;;;;;;5079103;28;20426;-50
2022/12/09 05:00:19;;;;;;;11.53;5.50;;;1.70;99.90;;;;;;5079191;28;20469;-51
2022/12/09 05:02:46;;;;;;;13.57;7.20;;;1.70;99.90;;;;;;5079865;28;20463;-55
2022/12/09 05:05:13;;;;;;;8.60;5.97;;;1.70;99.90;;;;;;5079207;28;20509;-48
2022/12/09 05:07:40;;;;;;;8.80;5.07;;;1.70;99.90;;;;;;5079012;28;20443;-51
2022/12/09 05:10:08;;;;;;;8.30;5.70;;;1.60;99.90;;;;;;5079267;28;20441;-51
2022/12/09 05:12:35;;;;;;;11.67;6.63;;;1.70;99.90;;;;;;5078786;28;20445;-54
2022/12/09 05:15:04;;;;;;;5.50;3.97;;;1.70;99.90;;;;;;5078830;28;20454;-56
2022/12/09 05:17:32;;;;;;;11.13;7.03;;;1.70;99.90;;;;;;5078483;28;20454;-54
2022/12/09 05:20:01;;;;;;;11.70;6.87;;;1.70;99.90;;;;;;5079301;28;20430;-57
2022/12/09 05:22:28;;;;;;;10.93;4.33;;;1.70;99.90;;;;;;5073320;28;20435;-58
2022/12/09 05:24:54;;;;;;;5.90;3.87;;;1.70;99.90;;;;;;5078408;28;20473;-54
2022/12/09 05:27:24;;;;;;;12.83;5.77;;;1.60;99.90;;;;;;5078644;28;20443;-54
2022/12/09 05:29:51;;;;;;;10.40;5.30;;;1.70;99.90;;;;;;5078864;28;20466;-55
2022/12/09 05:32:20;;;;;;;7.23;5.00;;;1.60;99.90;;;;;;5078911;28;20446;-50
2022/12/09 05:34:48;;;;;;;9.60;5.30;;;1.60;99.90;;;;;;5079500;28;20511;-53
2022/12/09 05:37:18;;;;;;;11.73;5.17;;;1.60;99.90;;;;;;5078825;28;20461;-55
2022/12/09 05:39:45;;;;;;;8.80;3.30;;;1.60;99.90;;;;;;5078163;28;20439;-51
2022/12/09 05:42:15;;;;;;;9.60;7.13;;;1.60;99.90;;;;;;5072862;28;20479;-57
2022/12/09 05:44:42;;;;;;;14.27;6.47;;;1.60;99.90;;;;;;5078624;28;20446;-52
2022/12/09 05:47:09;;;;;;;9.97;6.33;;;1.60;99.90;;;;;;5078651;28;20461;-56
2022/12/09 05:49:37;;;;;;;10.47;6.27;;;1.60;99.90;;;;;;5079022;28;20427;-53
2022/12/09 05:52:08;;;;;;;8.73;5.17;;;1.60;99.90;;;;;;5071507;28;20479;-58
2022/12/09 05:54:38;;;;;;;10.53;4.70;;;1.60;99.90;;;;;;5078377;28;20454;-54
2022/12/09 05:57:05;;;;;;;8.00;4.40;;;1.70;99.90;;;;;;5079489;28;20431;-53
2022/12/09 05:59:32;;;;;;;12.83;4.90;;;1.70;99.90;;;;;;5080479;28;20454;-57
2022/12/09 06:01:59;;;;;;;10.07;7.03;;;1.60;99.90;;;;;;5080132;28;20411;-55
2022/12/09 06:04:26;;;;;;;9.03;5.57;;;1.70;99.90;;;;;;5076422;28;20440;-55
2022/12/09 06:06:53;;;;;;;13.07;5.90;;;1.70;99.90;;;;;;5076681;28;20459;-59
2022/12/09 06:09:21;;;;;;;16.93;7.17;;;1.70;99.90;;;;;;5072989;28;20473;-54
2022/12/09 06:11:48;;;;;;;14.83;6.10;;;1.70;99.90;;;;;;5077900;28;20467;-56
2022/12/09 06:14:15;;;;;;;7.67;5.60;;;1.60;99.90;;;;;;5078460;28;20447;-55
2022/12/09 06:16:44;;;;;;;12.10;7.40;;;1.60;99.90;;;;;;5077584;28;20488;-52
2022/12/09 06:19:12;;;;;;;8.30;6.87;;;1.60;99.90;;;;;;5077725;28;20502;-58
2022/12/09 06:21:40;;;;;;;12.83;6.20;;;1.60;99.90;;;;;;5078192;28;20439;-56
2022/12/09 06:24:07;;;;;;;10.80;6.10;;;1.60;99.90;;;;;;5078134;28;20444;-57
2022/12/09 06:26:35;;;;;;;8.40;5.73;;;1.60;99.90;;;;;;5076450;28;20568;-53
2022/12/09 06:29:04;;;;;;;8.03;5.37;;;1.60;99.90;;;;;;5077695;28;20462;-55
2022/12/09 06:31:31;;;;;;;11.80;6.20;;;1.50;99.90;;;;;;5077847;28;20552;-56
2022/12/09 06:33:58;;;;;;;9.40;5.50;;;1.50;99.90;;;;;;5078221;28;20524;-57
2022/12/09 06:36:30;;;;;;;13.10;6.93;;;1.50;99.90;;;;;;5077809;28;20419;-56
2022/12/09 06:38:59;;;;;;;10.43;7.60;;;2.00;99.90;;;;;;5077693;28;20480;-55
2022/12/09 06:41:26;;;;;;;9.10;7.30;;;1.50;99.90;;;;;;5073951;28;20459;-58
2022/12/09 06:43:57;;;;;;;10.80;5.73;;;1.50;99.90;;;;;;5073817;28;20447;-57
2022/12/09 06:46:28;;;;;;;10.70;6.40;;;1.40;99.90;;;;;;5077250;28;20540;-58
2022/12/09 06:48:55;;;;;;;13.80;7.10;;;1.50;99.90;;;;;;5078109;28;20434;-60
2022/12/09 06:51:23;;;;;;;14.90;7.60;;;1.50;99.90;;;;;;5077508;28;20471;-57
2022/12/09 06:53:54;;;;;;;13.93;8.13;;;1.50;99.90;;;;;;5078024;28;20434;-56
2022/12/09 06:56:23;;;;;;;11.87;6.73;;;1.50;99.90;;;;;;5077788;28;20931;-55
2022/12/09 06:58:50;;;;;;;7.97;5.37;;;1.50;99.90;;;;;;5076995;28;20428;-62
2022/12/09 07:01:20;;;;;;;11.87;8.23;;;1.50;99.90;;;;;;5076776;28;20443;-53
2022/12/09 07:03:51;;;;;;;8.97;4.90;;;1.50;99.90;;;;;;5077160;28;20407;-56
2022/12/09 07:06:25;;;;;;;8.90;4.87;;;1.50;99.90;;;;;;5076822;28;20486;-51
2022/12/09 07:08:52;;;;;;;10.07;7.60;;;1.40;99.90;;;;;;5076702;28;20435;-56
2022/12/09 07:11:18;;;;;;;10.23;6.63;;;1.40;99.90;;;;;;5077126;28;20450;-57
2022/12/09 07:13:45;;;;;;;10.50;5.60;;;1.40;99.90;;;;;;5076779;28;20463;-59
2022/12/09 07:16:14;;;;;;;14.53;6.60;;;1.50;99.90;;;;;;5077273;28;20448;-54
2022/12/09 07:18:43;;;;;;;19.47;8.90;;;1.40;99.90;;;;;;5077226;28;20455;-56
2022/12/09 07:21:11;;;;;;;16.60;9.07;;;1.40;99.90;;;;;;5077640;28;20458;-56
2022/12/09 07:23:38;;;;;;;10.40;6.37;;;1.50;99.90;;;;;;5077359;28;20455;-55
2022/12/09 07:26:06;;;;;;;13.57;7.17;;;1.50;99.90;;;;;;5073043;28;20567;-56
2022/12/09 07:28:34;;;;;;;10.37;6.20;;;1.60;99.90;;;;;;5075073;28;20447;-56
2022/12/09 07:31:03;;;;;;;12.27;7.60;;;1.70;99.90;;;;;;5077702;28;20439;-55
2022/12/09 07:33:30;;;;;;;15.40;7.80;;;1.60;99.90;;;;;;5077503;28;20454;-55
2022/12/09 07:35:59;;;;;;;13.63;7.10;;;1.60;99.90;;;;;;5076823;28;20478;-57
2022/12/09 07:38:27;;;;;;;14.17;7.20;;;1.60;99.90;;;;;;5077147;28;20428;-57
2022/12/09 07:40:54;;;;;;;10.67;6.00;;;1.60;99.90;;;;;;5077146;28;20423;-61
2022/12/09 07:43:23;;;;;;;11.50;5.10;;;1.60;99.90;;;;;;5076254;28;20431;-56
2022/12/09 07:45:50;;;;;;;13.53;7.00;;;1.60;99.90;;;;;;5076571;28;20509;-54
2022/12/09 07:48:20;;;;;;;11.33;6.77;;;1.50;99.90;;;;;;5076658;28;20451;-53
2022/12/09 07:50:50;;;;;;;17.17;7.80;;;1.50;99.90;;;;;;5076919;28;20470;-51
2022/12/09 07:53:18;;;;;;;11.90;6.00;;;1.50;99.90;;;;;;5076343;28;20486;-51
2022/12/09 07:55:47;;;;;;;14.90;5.80;;;1.50;99.90;;;;;;5076065;28;20434;-53
2022/12/09 07:58:14;;;;;;;13.40;6.77;;;1.50;99.90;;;;;;5076394;28;20920;-57
2022/12/09 08:00:41;;;;;;;15.40;8.97;;;1.50;99.90;;;;;;5077357;28;20439;-52
2022/12/09 08:03:11;;;;;;;13.13;8.20;;;1.50;99.90;;;;;;5076288;28;20443;-55
2022/12/09 08:05:45;;;;;;;15.33;7.10;;;1.50;99.90;;;;;;5076183;28;20545;-55
2022/12/09 08:08:12;;;;;;;11.20;5.80;;;1.50;99.90;;;;;;5076394;28;20431;-54
2022/12/09 08:10:40;;;;;;;14.37;6.97;;;1.50;99.90;;;;;;5076202;28;20479;-53
2022/12/09 08:13:10;;;;;;;18.40;8.00;;;1.50;99.90;;;;;;5076198;28;20443;-51
2022/12/09 08:15:37;;;;;;;14.27;7.40;;;1.50;99.90;;;;;;5076102;28;20498;-58
2022/12/09 08:18:07;;;;;;;15.23;7.30;;;1.60;99.90;;;;;;5076440;28;20455;-51
2022/12/09 08:20:37;;;;;;;11.30;6.60;;;1.50;99.90;;;;;;5077325;28;20446;-59
2022/12/09 08:23:04;;;;;;;12.60;5.70;;;1.50;99.90;;;;;;5077841;28;20408;-53
2022/12/09 08:25:30;;;;;;;12.33;6.63;;;1.50;99.90;;;;;;5077478;28;20469;-52
2022/12/09 08:28:02;;;;;;;15.93;7.67;;;1.50;99.90;;;;;;5076757;28;20458;-59
2022/12/09 08:30:29;;;;;;;12.97;6.80;;;1.60;99.90;;;;;;5077275;28;20484;-54
2022/12/09 08:32:56;;;;;;;19.83;11.07;;;1.70;99.90;;;;;;5076943;28;20493;-54
2022/12/09 08:35:23;;;;;;;14.20;6.37;;;1.70;99.90;;;;;;5076405;28;20950;-54
2022/12/09 08:37:49;;;;;;;8.00;4.87;;;1.80;99.90;;;;;;5075719;28;20444;-56
2022/12/09 08:40:17;;;;;;;16.73;6.00;;;1.70;99.90;;;;;;5076644;28;20458;-55
2022/12/09 08:42:45;;;;;;;11.20;7.03;;;1.80;99.90;;;;;;5076209;28;20454;-57
2022/12/09 08:45:13;;;;;;;7.60;4.70;;;1.90;99.90;;;;;;5076610;28;20438;-58
2022/12/09 08:47:41;;;;;;;19.23;8.27;;;1.80;99.90;;;;;;5076372;28;20513;-54
2022/12/09 08:50:09;;;;;;;16.63;7.33;;;1.70;99.90;;;;;;5076050;28;20496;-59
2022/12/09 08:52:35;;;;;;;14.10;7.17;;;1.80;99.90;;;;;;5075703;28;20427;-56
2022/12/09 08:55:02;;;;;;;15.27;7.80;;;1.70;99.90;;;;;;5076909;28;20490;-55
2022/12/09 08:57:29;;;;;;;10.17;5.73;;;1.70;99.90;;;;;;5076304;28;20435;-59
2022/12/09 08:59:56;;;;;;;14.93;8.47;;;1.70;99.90;;;;;;5076353;28;20443;-55
2022/12/09 09:02:28;;;;;;;13.10;6.90;;;1.70;99.90;;;;;;5076110;28;20439;-57
2022/12/09 09:04:55;;;;;;;11.77;7.83;;;1.80;99.90;;;;;;5076241;28;20473;-55
2022/12/09 09:07:25;;;;;;;9.57;7.00;;;1.80;99.90;;;;;;5076021;28;20471;-49
2022/12/09 09:09:55;;;;;;;16.87;7.67;;;1.80;99.90;;;;;;5075566;28;20487;-56
2022/12/09 09:12:22;;;;;;;19.47;7.37;;;1.80;99.90;;;;;;5076350;28;20474;-52
2022/12/09 09:14:51;;;;;;;20.80;8.00;;;1.80;99.90;;;;;;5075664;28;20487;-60
2022/12/09 09:17:18;;;;;;;15.83;6.20;;;1.80;99.90;;;;;;5076349;28;20419;-55
2022/12/09 09:19:47;;;;;;;16.73;7.87;;;1.90;99.90;;;;;;5075929;28;20450;-53
2022/12/09 09:22:16;;;;;;;10.33;5.47;;;1.90;99.90;;;;;;5075128;28;20438;-54
2022/12/09 09:24:47;;;;;;;20.93;7.43;;;1.90;99.90;;;;;;5076161;28;20431;-57
2022/12/09 09:27:14;;;;;;;12.40;6.20;;;1.90;99.90;;;;;;5075851;28;20463;-55
2022/12/09 09:29:43;;;;;;;15.53;5.60;;;1.80;99.90;;;;;;5077470;28;20447;-52
2022/12/09 09:32:10;;;;;;;13.07;5.97;;;1.80;99.90;;;;;;5080664;28;20427;-57
2022/12/09 09:34:37;;;;;;;10.50;6.20;;;1.80;99.90;;;;;;5078954;28;20439;-54
2022/12/09 09:37:05;;;;;;;20.33;7.90;;;1.90;99.90;;;;;;5080021;28;20439;-55
2022/12/09 09:39:32;;;;;;;13.50;5.70;;;1.90;99.90;;;;;;5079257;28;20497;-55
2022/12/09 09:42:04;;;;;;;11.30;6.43;;;1.90;99.90;;;;;;5080160;28;20458;-50
2022/12/09 09:44:33;;;;;;;14.87;6.10;;;1.90;99.90;;;;;;5079417;28;20415;-60
2022/12/09 09:47:08;;;;;;;14.53;7.37;;;2.00;99.90;;;;;;5079599;28;20517;-54
2022/12/09 09:49:42;;;;;;;18.97;7.03;;;1.90;99.90;;;;;;5080315;28;20423;-59
2022/12/09 09:52:21;;;;;;;17.07;8.20;;;1.90;99.90;;;;;;5079845;28;20465;-55
2022/12/09 09:54:48;;;;;;;29.80;9.03;;;2.00;99.90;;;;;;5079563;28;20419;-46
2022/12/09 09:57:22;;;;;;;17.90;7.27;;;2.00;99.90;;;;;;5079637;28;20455;-52
2022/12/09 10:00:12;;;;;;;12.80;5.53;;;2.00;99.90;;;;;;5079881;28;20418;-51
2022/12/09 10:02:55;;;;;;;15.10;6.50;;;1.90;99.90;;;;;;5079590;28;20522;-50
2022/12/09 10:05:25;;;;;;;11.53;5.20;;;1.90;99.90;;;;;;5079988;28;20419;-44
2022/12/09 10:07:58;;;;;;;13.40;7.30;;;1.90;99.90;;;;;;5071325;28;20537;-52
2022/12/09 10:10:42;;;;;;;13.60;7.40;;;1.90;99.90;;;;;;5079268;28;20419;-53
2022/12/09 10:13:29;;;;;;;17.37;5.73;;;1.90;99.90;;;;;;5079823;28;20538;-54
2022/12/09 10:16:02;;;;;;;17.03;6.30;;;1.90;99.90;;;;;;5078799;28;20880;-55
2022/12/09 10:18:37;;;;;;;15.43;7.53;;;1.90;99.90;;;;;;5073730;28;20451;-52
2022/12/09 10:21:18;;;;;;;16.20;6.53;;;1.90;99.90;;;;;;5078098;28;20442;-49
2022/12/09 10:23:49;;;;;;;15.27;10.30;;;2.00;99.90;;;;;;5079233;28;20427;-54
2022/12/09 10:26:20;;;;;;;24.07;7.70;;;2.00;99.90;;;;;;5079022;28;20461;-51
2022/12/09 10:28:52;;;;;;;11.53;7.40;;;2.10;99.90;;;;;;5078751;28;20435;-51
2022/12/09 10:31:21;;;;;;;8.70;4.53;;;2.10;99.90;;;;;;5078469;28;20435;-57
2022/12/09 10:33:51;;;;;;;11.60;6.43;;;2.10;99.90;;;;;;5079000;28;20470;-49
2022/12/09 10:36:24;;;;;;;16.13;8.10;;;2.20;99.90;;;;;;5078758;28;20450;-52
2022/12/09 10:38:52;;;;;;;13.27;6.07;;;2.20;99.90;;;;;;5079036;28;20424;-53
2022/12/09 10:44:29;;;;;;;12.60;6.57;;;2.20;99.90;;;;;;5078761;28;20461;-49
2022/12/09 10:47:04;;;;;;;22.07;8.60;;;2.20;99.90;;;;;;5078728;28;20490;-53
2022/12/09 10:49:34;;;;;;;17.90;7.97;;;2.30;99.90;;;;;;5078852;28;20419;-48
2022/12/09 10:52:03;;;;;;;14.97;8.37;;;2.30;99.90;;;;;;5078962;28;20427;-53
2022/12/09 10:54:35;;;;;;;10.60;7.50;;;2.30;99.90;;;;;;5078447;28;20435;-56
2022/12/09 10:57:21;;;;;;;18.43;8.50;;;2.40;99.90;;;;;;5078933;28;20428;-48
2022/12/09 11:00:00;;;;;;;12.97;7.13;;;2.40;99.90;;;;;;5079097;28;20534;-49
2022/12/09 11:02:33;;;;;;;11.50;7.63;;;2.40;99.90;;;;;;5078593;28;20463;-50
2022/12/09 11:05:24;;;;;;;13.10;8.20;;;2.40;99.90;;;;;;5078112;28;20458;-51
2022/12/09 11:07:54;;;;;;;10.50;7.37;;;2.50;99.90;;;;;;5077689;28;20451;-53
2022/12/09 11:10:27;;;;;;;17.70;9.30;;;2.40;99.90;;;;;;5077517;28;20447;-54
2022/12/09 11:13:01;;;;;;;17.43;7.60;;;2.40;99.90;;;;;;5077502;28;20451;-49
2022/12/09 11:15:33;;;;;;;18.37;9.30;;;2.40;99.90;;;;;;5074396;28;20911;-50
2022/12/09 11:18:04;;;;;;;16.57;8.10;;;2.30;99.90;;;;;;5074533;28;20518;-50
2022/12/09 11:20:33;;;;;;;19.43;7.90;;;2.30;99.90;;;;;;5077836;28;20439;-56
2022/12/09 11:23:03;;;;;;;19.97;9.93;;;2.30;99.90;;;;;;5078136;28;20526;-48
2022/12/09 11:25:35;;;;;;;30.73;11.67;;;2.20;99.90;;;;;;5077694;28;20459;-54
2022/12/09 11:28:21;;;;;;;32.93;9.47;;;2.20;99.90;;;;;;5078028;28;20459;-49
2022/12/09 11:30:57;;;;;;;13.27;7.57;;;2.20;99.90;;;;;;5076183;28;20502;-52
2022/12/09 11:33:27;;;;;;;19.33;7.07;;;2.20;99.90;;;;;;5078209;28;20435;-51
2022/12/09 11:36:00;;;;;;;13.57;7.57;;;2.30;99.90;;;;;;5077647;28;20459;-55
2022/12/09 11:38:36;;;;;;;12.90;7.50;;;2.30;99.90;;;;;;5077384;28;20412;-55
2022/12/09 11:43:59;;;;;;;19.40;9.03;;;2.30;99.90;;;;;;5077238;28;20430;-52
2022/12/09 11:46:29;;;;;;;17.43;8.60;;;2.30;99.90;;;;;;5077347;28;20446;-58
2022/12/09 11:49:00;;;;;;;22.30;9.43;;;2.30;99.90;;;;;;5077900;28;20427;-54
2022/12/09 11:51:33;;;;;;;14.80;7.73;;;2.20;99.90;;;;;;5077939;28;20428;-49
2022/12/09 11:54:18;;;;;;;23.13;8.03;;;2.10;99.90;;;;;;5077848;28;20442;-51
2022/12/09 11:56:48;;;;;;;16.73;7.73;;;2.00;99.90;;;;;;5075400;28;20459;-51
2022/12/09 11:59:28;;;;;;;11.37;7.47;;;2.10;99.90;;;;;;5075443;28;20447;-48
2022/12/09 12:02:04;;;;;;;13.83;7.23;;;2.00;99.90;;;;;;5077283;28;20423;-50
2022/12/09 12:04:36;;;;;;;12.10;8.53;;;2.00;99.90;;;;;;5076838;28;20441;-50
2022/12/09 12:07:06;;;;;;;21.37;9.30;;;2.00;99.90;;;;;;5073084;28;20478;-52
2022/12/09 12:09:41;;;;;;;15.73;9.57;;;2.00;99.90;;;;;;5075675;28;20434;-53
2022/12/09 12:12:19;;;;;;;23.23;10.03;;;2.00;99.90;;;;;;5077374;28;20423;-59
2022/12/09 12:14:46;;;;;;;16.80;8.00;;;2.10;99.90;;;;;;5077262;28;20448;-50
2022/12/09 12:17:18;;;;;;;21.00;8.90;;;2.20;99.90;;;;;;5077281;28;20489;-47
2022/12/09 12:19:49;;;;;;;23.67;8.90;;;2.30;99.90;;;;;;5076946;28;20435;-51
2022/12/09 12:22:40;;;;;;;12.10;6.47;;;2.20;99.90;;;;;;5077087;28;20432;-54
2022/12/09 12:25:23;;;;;;;7.10;4.50;;;2.20;99.90;;;;;;5074469;28;20455;-52
2022/12/09 12:28:24;;;;;;;13.47;5.97;;;2.20;99.90;;;;;;5076808;28;20458;-52
2022/12/09 12:31:00;;;;;;;11.90;5.20;;;2.30;99.90;;;;;;5076892;28;20493;-59
2022/12/09 12:33:45;;;;;;;14.30;6.57;;;2.30;99.90;;;;;;5076964;28;20431;-54
2022/12/09 12:36:24;;;;;;;19.47;5.93;;;2.20;99.90;;;;;;5077011;28;20482;-57
2022/12/09 12:39:04;;;;;;;12.47;6.43;;;2.20;99.90;;;;;;5076625;28;20424;-56
2022/12/09 12:41:47;;;;;;;11.67;6.20;;;2.30;99.90;;;;;;5076874;28;20524;-45
2022/12/09 12:47:25;;;;;;;15.00;7.00;;;2.10;99.90;;;;;;5076385;28;20485;-58
2022/12/09 12:50:33;;;;;;;9.50;4.87;;;2.10;99.90;;;;;;5076911;28;20422;-54
2022/12/09 12:53:09;;;;;;;10.10;5.80;;;2.00;99.90;;;;;;5074339;28;20478;-52
2022/12/09 12:55:48;;;;;;;13.47;6.33;;;2.00;99.90;;;;;;5076520;28;20440;-52
2022/12/09 12:58:29;;;;;;;12.97;7.77;;;1.40;99.90;;;;;;5076316;28;20444;-50
2022/12/09 13:01:05;;;;;;;11.07;5.80;;;2.00;99.90;;;;;;5075079;28;20439;-56
2022/12/09 13:03:39;;;;;;;11.00;5.27;;;2.00;99.90;;;;;;5075962;28;20420;-50
2022/12/09 13:06:12;;;;;;;9.93;5.43;;;2.00;99.90;;;;;;5079589;28;20868;-48
2022/12/09 13:08:43;;;;;;;14.90;6.50;;;2.10;99.90;;;;;;5080132;28;20463;-56
2022/12/09 13:11:18;;;;;;;18.47;5.60;;;2.10;99.90;;;;;;5080561;28;20419;-53
2022/12/09 13:13:49;;;;;;;13.20;6.23;;;2.00;99.90;;;;;;5080167;28;20439;-52